sensor_id;sensor_type;location;lat;lon;timestamp;pressure;altitude;pressure_sealevel;temperature;humidity
64886;BME280;51514;52.206;5.114;2023-05-22T00:00:19;101696.38;;;16.91;89.86
64886;BME280;51514;52.206;5.114;2023-05-22T00:02:44;101685.63;;;16.97;89.77
64886;BME280;51514;52.206;5.114;2023-05-22T00:05:11;101684.91;;;17.03;89.29
64886;BME280;51514;52.206;5.114;2023-05-22T00:07:37;101692.53;;;17.08;89.34
64886;BME280;51514;52.206;5.114;2023-05-22T00:10:03;101671.22;;;17.11;89.32
64886;BME280;51514;52.206;5.114;2023-05-22T00:12:29;101669.50;;;17.10;89.39
64886;BME280;51514;52.206;5.114;2023-05-22T00:14:54;101662.34;;;17.09;89.19
64886;BME280;51514;52.206;5.114;2023-05-22T00:17:20;101651.94;;;17.13;89.22
64886;BME280;51514;52.206;5.114;2023-05-22T00:19:45;101649.22;;;17.13;89.45
64886;BME280;51514;52.206;5.114;2023-05-22T00:22:10;101638.66;;;17.18;89.04
64886;BME280;51514;52.206;5.114;2023-05-22T00:24:36;101638.06;;;17.23;88.88
64886;BME280;51514;52.206;5.114;2023-05-22T00:27:03;101641.28;;;17.26;88.49
64886;BME280;51514;52.206;5.114;2023-05-22T00:29:29;101635.47;;;17.29;88.55
64886;BME280;51514;52.206;5.114;2023-05-22T00:31:55;101632.09;;;17.27;88.63
64886;BME280;51514;52.206;5.114;2023-05-22T00:34:20;101635.75;;;17.20;89.08
64886;BME280;51514;52.206;5.114;2023-05-22T00:36:45;101652.56;;;17.23;89.29
64886;BME280;51514;52.206;5.114;2023-05-22T00:39:11;101639.50;;;17.19;89.46
64886;BME280;51514;52.206;5.114;2023-05-22T00:41:36;101660.28;;;17.20;89.48
64886;BME280;51514;52.206;5.114;2023-05-22T00:44:02;101674.72;;;17.20;89.76
64886;BME280;51514;52.206;5.114;2023-05-22T00:46:28;101677.25;;;17.22;89.69
64886;BME280;51514;52.206;5.114;2023-05-22T00:48:53;101658.84;;;17.24;89.81
64886;BME280;51514;52.206;5.114;2023-05-22T00:51:20;101641.53;;;17.17;89.97
64886;BME280;51514;52.206;5.114;2023-05-22T00:53:46;101631.00;;;17.13;90.33
64886;BME280;51514;52.206;5.114;2023-05-22T00:56:12;101643.09;;;17.11;90.20
64886;BME280;51514;52.206;5.114;2023-05-22T00:58:39;101633.44;;;17.08;90.43
64886;BME280;51514;52.206;5.114;2023-05-22T01:01:05;101631.91;;;17.06;90.38
64886;BME280;51514;52.206;5.114;2023-05-22T01:03:35;101626.66;;;17.04;90.45
64886;BME280;51514;52.206;5.114;2023-05-22T01:06:01;101627.31;;;17.06;90.35
64886;BME280;51514;52.206;5.114;2023-05-22T01:08:27;101620.84;;;17.07;90.16
64886;BME280;51514;52.206;5.114;2023-05-22T01:11:01;101616.09;;;17.01;90.47
64886;BME280;51514;52.206;5.114;2023-05-22T01:21:18;101591.56;;;16.87;91.27
64886;BME280;51514;52.206;5.114;2023-05-22T01:32:12;101587.06;;;16.71;91.93
64886;BME280;51514;52.206;5.114;2023-05-22T01:34:40;101581.25;;;16.74;91.83
64886;BME280;51514;52.206;5.114;2023-05-22T01:37:08;101575.41;;;16.77;91.62
64886;BME280;51514;52.206;5.114;2023-05-22T01:39:34;101570.81;;;16.77;91.79
64886;BME280;51514;52.206;5.114;2023-05-22T01:42:00;101567.91;;;16.79;91.52
64886;BME280;51514;52.206;5.114;2023-05-22T01:44:26;101575.06;;;16.80;91.74
64886;BME280;51514;52.206;5.114;2023-05-22T01:46:51;101586.97;;;16.79;91.38
64886;BME280;51514;52.206;5.114;2023-05-22T01:49:17;101580.50;;;16.80;91.32
64886;BME280;51514;52.206;5.114;2023-05-22T01:54:23;101566.59;;;16.75;91.40
64886;BME280;51514;52.206;5.114;2023-05-22T01:56:55;101565.19;;;16.79;91.29
64886;BME280;51514;52.206;5.114;2023-05-22T02:01:50;101549.53;;;16.81;90.74
64886;BME280;51514;52.206;5.114;2023-05-22T02:04:18;101553.09;;;16.82;90.55
64886;BME280;51514;52.206;5.114;2023-05-22T02:06:46;101552.25;;;16.81;90.52
64886;BME280;51514;52.206;5.114;2023-05-22T02:09:13;101544.06;;;16.81;90.31
64886;BME280;51514;52.206;5.114;2023-05-22T02:11:40;101547.47;;;16.83;90.25
64886;BME280;51514;52.206;5.114;2023-05-22T02:14:06;101542.03;;;16.83;90.11
64886;BME280;51514;52.206;5.114;2023-05-22T02:16:33;101538.28;;;16.84;89.99
64886;BME280;51514;52.206;5.114;2023-05-22T02:18:59;101538.94;;;16.86;90.18
64886;BME280;51514;52.206;5.114;2023-05-22T02:21:31;101537.06;;;16.87;89.24
64886;BME280;51514;52.206;5.114;2023-05-22T02:23:56;101537.06;;;16.87;88.89
64886;BME280;51514;52.206;5.114;2023-05-22T02:26:21;101537.91;;;16.87;88.42
64886;BME280;51514;52.206;5.114;2023-05-22T02:28:47;101527.38;;;16.84;88.38
64886;BME280;51514;52.206;5.114;2023-05-22T02:31:12;101534.88;;;16.82;87.91
64886;BME280;51514;52.206;5.114;2023-05-22T02:33:37;101535.91;;;16.81;88.29
64886;BME280;51514;52.206;5.114;2023-05-22T02:36:03;101527.25;;;16.77;88.51
64886;BME280;51514;52.206;5.114;2023-05-22T02:38:28;101534.22;;;16.80;87.74
64886;BME280;51514;52.206;5.114;2023-05-22T02:40:53;101535.25;;;16.79;87.32
64886;BME280;51514;52.206;5.114;2023-05-22T02:43:19;101537.28;;;16.77;87.97
64886;BME280;51514;52.206;5.114;2023-05-22T02:45:44;101539.00;;;16.78;87.69
64886;BME280;51514;52.206;5.114;2023-05-22T02:48:09;101538.81;;;16.79;87.20
64886;BME280;51514;52.206;5.114;2023-05-22T02:50:35;101532.50;;;16.79;87.26
64886;BME280;51514;52.206;5.114;2023-05-22T02:53:00;101520.78;;;16.78;86.70
64886;BME280;51514;52.206;5.114;2023-05-22T02:55:25;101526.41;;;16.77;86.25
64886;BME280;51514;52.206;5.114;2023-05-22T02:57:51;101521.34;;;16.74;86.24
64886;BME280;51514;52.206;5.114;2023-05-22T03:00:16;101517.44;;;16.68;86.46
64886;BME280;51514;52.206;5.114;2023-05-22T03:02:42;101524.31;;;16.64;86.80
64886;BME280;51514;52.206;5.114;2023-05-22T03:05:08;101528.22;;;16.62;86.85
64886;BME280;51514;52.206;5.114;2023-05-22T03:07:33;101525.91;;;16.51;87.76
64886;BME280;51514;52.206;5.114;2023-05-22T03:09:59;101524.19;;;16.50;88.53
64886;BME280;51514;52.206;5.114;2023-05-22T03:12:24;101522.16;;;16.52;88.74
64886;BME280;51514;52.206;5.114;2023-05-22T03:14:50;101517.78;;;16.42;88.74
64886;BME280;51514;52.206;5.114;2023-05-22T03:17:15;101520.94;;;16.31;88.58
64886;BME280;51514;52.206;5.114;2023-05-22T03:19:40;101521.78;;;16.32;88.88
64886;BME280;51514;52.206;5.114;2023-05-22T03:22:06;101515.50;;;16.31;88.68
64886;BME280;51514;52.206;5.114;2023-05-22T03:24:31;101520.94;;;16.31;87.83
64886;BME280;51514;52.206;5.114;2023-05-22T03:26:58;101515.50;;;16.23;87.73
64886;BME280;51514;52.206;5.114;2023-05-22T03:29:23;101521.84;;;16.16;87.31
64886;BME280;51514;52.206;5.114;2023-05-22T03:31:49;101513.56;;;16.09;87.42
64886;BME280;51514;52.206;5.114;2023-05-22T03:34:14;101504.06;;;16.05;87.97
64886;BME280;51514;52.206;5.114;2023-05-22T03:36:40;101507.34;;;16.00;87.87
64886;BME280;51514;52.206;5.114;2023-05-22T03:39:06;101502.41;;;15.96;88.25
64886;BME280;51514;52.206;5.114;2023-05-22T03:41:31;101502.28;;;15.89;88.07
64886;BME280;51514;52.206;5.114;2023-05-22T03:43:57;101508.59;;;15.82;88.91
64886;BME280;51514;52.206;5.114;2023-05-22T03:46:22;101506.56;;;15.84;88.62
64886;BME280;51514;52.206;5.114;2023-05-22T03:48:47;101511.16;;;15.83;88.74
64886;BME280;51514;52.206;5.114;2023-05-22T03:51:13;101518.09;;;15.86;88.92
64886;BME280;51514;52.206;5.114;2023-05-22T03:53:38;101520.16;;;15.84;88.93
64886;BME280;51514;52.206;5.114;2023-05-22T03:56:04;101522.88;;;15.84;89.33
64886;BME280;51514;52.206;5.114;2023-05-22T03:58:29;101522.03;;;15.83;89.23
64886;BME280;51514;52.206;5.114;2023-05-22T04:00:54;101522.88;;;15.84;89.93
64886;BME280;51514;52.206;5.114;2023-05-22T04:03:23;101518.97;;;15.86;90.87
64886;BME280;51514;52.206;5.114;2023-05-22T04:05:48;101520.47;;;15.89;91.39
64886;BME280;51514;52.206;5.114;2023-05-22T04:08:15;101525.94;;;15.89;91.77
64886;BME280;51514;52.206;5.114;2023-05-22T04:10:40;101514.66;;;15.92;91.70
64886;BME280;51514;52.206;5.114;2023-05-22T04:13:06;101527.63;;;15.90;92.42
64886;BME280;51514;52.206;5.114;2023-05-22T04:15:31;101537.81;;;15.88;92.99
64886;BME280;51514;52.206;5.114;2023-05-22T04:17:58;101543.09;;;15.89;93.05
64886;BME280;51514;52.206;5.114;2023-05-22T04:20:24;101548.53;;;15.89;93.20
64886;BME280;51514;52.206;5.114;2023-05-22T04:22:49;101551.91;;;15.91;93.28
64886;BME280;51514;52.206;5.114;2023-05-22T04:25:15;101552.09;;;15.90;93.42
64886;BME280;51514;52.206;5.114;2023-05-22T04:27:41;101553.13;;;15.89;93.42
64886;BME280;51514;52.206;5.114;2023-05-22T04:30:06;101558.91;;;15.86;93.50
64886;BME280;51514;52.206;5.114;2023-05-22T04:32:33;101566.88;;;15.87;93.54
64886;BME280;51514;52.206;5.114;2023-05-22T04:35:00;101564.00;;;15.89;93.63
64886;BME280;51514;52.206;5.114;2023-05-22T04:37:26;101563.16;;;15.88;93.46
64886;BME280;51514;52.206;5.114;2023-05-22T04:39:53;101569.06;;;15.92;93.68
64886;BME280;51514;52.206;5.114;2023-05-22T04:42:22;101564.13;;;15.95;93.46
64886;BME280;51514;52.206;5.114;2023-05-22T04:44:49;101570.41;;;15.96;93.24
64886;BME280;51514;52.206;5.114;2023-05-22T04:47:17;101580.97;;;15.99;93.17
64886;BME280;51514;52.206;5.114;2023-05-22T04:49:43;101576.84;;;16.03;93.18
64886;BME280;51514;52.206;5.114;2023-05-22T04:52:10;101576.50;;;16.06;93.33
64886;BME280;51514;52.206;5.114;2023-05-22T04:54:36;101582.44;;;16.10;93.51
64886;BME280;51514;52.206;5.114;2023-05-22T04:57:02;101574.59;;;16.15;93.58
64886;BME280;51514;52.206;5.114;2023-05-22T04:59:30;101578.81;;;16.17;93.46
64886;BME280;51514;52.206;5.114;2023-05-22T05:01:55;101574.75;;;16.21;93.53
64886;BME280;51514;52.206;5.114;2023-05-22T05:04:21;101570.63;;;16.25;93.48
64886;BME280;51514;52.206;5.114;2023-05-22T05:06:46;101572.63;;;16.31;93.69
64886;BME280;51514;52.206;5.114;2023-05-22T05:09:11;101575.38;;;16.31;93.69
64886;BME280;51514;52.206;5.114;2023-05-22T05:11:37;101570.38;;;16.35;94.02
64886;BME280;51514;52.206;5.114;2023-05-22T05:14:02;101561.53;;;16.41;94.29
64886;BME280;51514;52.206;5.114;2023-05-22T05:16:27;101577.97;;;16.48;94.23
64886;BME280;51514;52.206;5.114;2023-05-22T05:18:53;101573.88;;;16.52;94.56
64886;BME280;51514;52.206;5.114;2023-05-22T05:21:19;101574.56;;;16.54;94.53
64886;BME280;51514;52.206;5.114;2023-05-22T05:23:46;101574.34;;;16.63;94.59
64886;BME280;51514;52.206;5.114;2023-05-22T05:26:11;101575.47;;;16.69;94.55
64886;BME280;51514;52.206;5.114;2023-05-22T05:28:36;101581.25;;;16.74;94.51
64886;BME280;51514;52.206;5.114;2023-05-22T05:31:02;101574.22;;;16.79;94.48
64886;BME280;51514;52.206;5.114;2023-05-22T05:33:27;101576.06;;;16.87;94.46
64886;BME280;51514;52.206;5.114;2023-05-22T05:35:53;101569.88;;;16.93;94.34
64886;BME280;51514;52.206;5.114;2023-05-22T05:38:18;101579.66;;;17.02;94.54
64886;BME280;51514;52.206;5.114;2023-05-22T05:40:44;101574.53;;;17.07;94.12
64886;BME280;51514;52.206;5.114;2023-05-22T05:43:09;101580.25;;;17.12;94.23
64886;BME280;51514;52.206;5.114;2023-05-22T05:45:35;101578.50;;;17.20;94.54
64886;BME280;51514;52.206;5.114;2023-05-22T05:48:00;101575.88;;;17.26;94.48
64886;BME280;51514;52.206;5.114;2023-05-22T05:50:25;101573.72;;;17.36;94.41
64886;BME280;51514;52.206;5.114;2023-05-22T05:52:51;101580.78;;;17.45;94.51
64886;BME280;51514;52.206;5.114;2023-05-22T05:55:16;101578.19;;;17.52;94.20
64886;BME280;51514;52.206;5.114;2023-05-22T05:57:41;101575.38;;;17.60;94.03
64886;BME280;51514;52.206;5.114;2023-05-22T06:00:07;101566.09;;;17.69;94.02
64886;BME280;51514;52.206;5.114;2023-05-22T06:02:35;101570.59;;;17.77;94.10
64886;BME280;51514;52.206;5.114;2023-05-22T06:05:02;101563.81;;;17.87;94.09
64886;BME280;51514;52.206;5.114;2023-05-22T06:07:30;101560.97;;;17.96;93.91
64886;BME280;51514;52.206;5.114;2023-05-22T06:09:56;101555.44;;;18.04;93.81
64886;BME280;51514;52.206;5.114;2023-05-22T06:12:21;101562.50;;;18.13;93.34
64886;BME280;51514;52.206;5.114;2023-05-22T06:14:47;101560.31;;;18.23;93.18
64886;BME280;51514;52.206;5.114;2023-05-22T06:17:12;101571.09;;;18.31;92.87
64886;BME280;51514;52.206;5.114;2023-05-22T06:19:38;101566.19;;;18.41;92.84
64886;BME280;51514;52.206;5.114;2023-05-22T06:22:04;101572.19;;;18.51;92.53
64886;BME280;51514;52.206;5.114;2023-05-22T06:24:29;101574.44;;;18.63;92.61
64886;BME280;51514;52.206;5.114;2023-05-22T06:26:56;101566.53;;;18.68;92.02
64886;BME280;51514;52.206;5.114;2023-05-22T06:29:22;101580.22;;;18.74;91.28
64886;BME280;51514;52.206;5.114;2023-05-22T06:31:47;101578.22;;;18.83;91.60
64886;BME280;51514;52.206;5.114;2023-05-22T06:34:12;101589.88;;;18.91;91.23
64886;BME280;51514;52.206;5.114;2023-05-22T06:36:38;101575.88;;;19.01;90.92
64886;BME280;51514;52.206;5.114;2023-05-22T06:39:03;101578.28;;;19.11;91.03
64886;BME280;51514;52.206;5.114;2023-05-22T06:41:29;101579.19;;;19.18;90.46
64886;BME280;51514;52.206;5.114;2023-05-22T06:43:54;101575.25;;;19.27;90.35
64886;BME280;51514;52.206;5.114;2023-05-22T06:46:19;101584.81;;;19.38;89.48
64886;BME280;51514;52.206;5.114;2023-05-22T06:48:45;101583.63;;;19.47;89.60
64886;BME280;51514;52.206;5.114;2023-05-22T06:51:11;101591.28;;;19.58;89.27
64886;BME280;51514;52.206;5.114;2023-05-22T06:53:37;101581.25;;;19.65;88.72
64886;BME280;51514;52.206;5.114;2023-05-22T06:56:03;101587.41;;;19.74;88.40
64886;BME280;51514;52.206;5.114;2023-05-22T06:58:29;101586.41;;;19.81;88.65
64886;BME280;51514;52.206;5.114;2023-05-22T07:00:54;101585.19;;;19.90;88.81
64886;BME280;51514;52.206;5.114;2023-05-22T07:03:20;101591.19;;;20.00;88.52
64886;BME280;51514;52.206;5.114;2023-05-22T07:05:46;101593.09;;;20.13;88.54
64886;BME280;51514;52.206;5.114;2023-05-22T07:08:11;101594.22;;;20.25;88.49
64886;BME280;51514;52.206;5.114;2023-05-22T07:10:37;101589.03;;;20.37;87.94
64886;BME280;51514;52.206;5.114;2023-05-22T07:13:02;101595.63;;;20.49;87.52
64886;BME280;51514;52.206;5.114;2023-05-22T07:15:28;101599.00;;;20.58;85.96
64886;BME280;51514;52.206;5.114;2023-05-22T07:17:53;101593.56;;;20.64;85.95
64886;BME280;51514;52.206;5.114;2023-05-22T07:20:18;101594.84;;;20.75;86.20
64886;BME280;51514;52.206;5.114;2023-05-22T07:22:44;101597.84;;;20.87;85.23
64886;BME280;51514;52.206;5.114;2023-05-22T07:25:09;101600.16;;;20.96;84.33
64886;BME280;51514;52.206;5.114;2023-05-22T07:27:34;101599.97;;;21.04;84.15
64886;BME280;51514;52.206;5.114;2023-05-22T07:30:00;101593.41;;;21.12;83.23
64886;BME280;51514;52.206;5.114;2023-05-22T07:32:25;101609.25;;;21.17;82.46
64886;BME280;51514;52.206;5.114;2023-05-22T07:34:50;101608.88;;;21.26;82.38
64886;BME280;51514;52.206;5.114;2023-05-22T07:37:16;101609.50;;;21.35;81.21
64886;BME280;51514;52.206;5.114;2023-05-22T07:39:42;101604.03;;;21.41;80.42
64886;BME280;51514;52.206;5.114;2023-05-22T07:42:07;101609.31;;;21.49;80.72
64886;BME280;51514;52.206;5.114;2023-05-22T07:44:33;101602.53;;;21.59;80.48
64886;BME280;51514;52.206;5.114;2023-05-22T07:46:58;101607.16;;;21.65;79.70
64886;BME280;51514;52.206;5.114;2023-05-22T07:49:24;101602.53;;;21.72;79.76
64886;BME280;51514;52.206;5.114;2023-05-22T07:51:49;101602.06;;;21.81;79.40
64886;BME280;51514;52.206;5.114;2023-05-22T07:54:15;101599.31;;;21.88;79.09
64886;BME280;51514;52.206;5.114;2023-05-22T07:56:40;101592.13;;;21.94;78.22
64886;BME280;51514;52.206;5.114;2023-05-22T07:59:07;101597.41;;;22.02;78.46
64886;BME280;51514;52.206;5.114;2023-05-22T08:01:33;101604.34;;;22.11;78.04
64886;BME280;51514;52.206;5.114;2023-05-22T08:03:59;101607.69;;;22.19;77.51
64886;BME280;51514;52.206;5.114;2023-05-22T08:06:24;101603.63;;;22.29;77.34
64886;BME280;51514;52.206;5.114;2023-05-22T08:08:49;101615.47;;;22.36;76.15
64886;BME280;51514;52.206;5.114;2023-05-22T08:11:17;101601.09;;;22.34;76.53
64886;BME280;51514;52.206;5.114;2023-05-22T08:13:42;101607.44;;;22.34;76.53
64886;BME280;51514;52.206;5.114;2023-05-22T08:16:08;101605.53;;;22.35;77.25
64886;BME280;51514;52.206;5.114;2023-05-22T08:18:34;101605.53;;;22.35;77.18
64886;BME280;51514;52.206;5.114;2023-05-22T08:20:59;101612.94;;;22.34;77.63
64886;BME280;51514;52.206;5.114;2023-05-22T08:23:24;101610.41;;;22.33;76.73
64886;BME280;51514;52.206;5.114;2023-05-22T08:25:50;101616.53;;;22.35;76.88
64886;BME280;51514;52.206;5.114;2023-05-22T08:28:15;101609.56;;;22.32;76.80
64886;BME280;51514;52.206;5.114;2023-05-22T08:30:40;101611.66;;;22.30;77.13
64886;BME280;51514;52.206;5.114;2023-05-22T08:33:06;101612.50;;;22.37;76.65
64886;BME280;51514;52.206;5.114;2023-05-22T08:35:31;101616.00;;;22.51;76.55
64886;BME280;51514;52.206;5.114;2023-05-22T08:37:56;101606.88;;;22.64;76.30
64886;BME280;51514;52.206;5.114;2023-05-22T08:40:22;101604.72;;;22.79;75.37
64886;BME280;51514;52.206;5.114;2023-05-22T08:42:48;101603.78;;;22.91;75.13
64886;BME280;51514;52.206;5.114;2023-05-22T08:45:19;101600.31;;;23.03;74.62
64886;BME280;51514;52.206;5.114;2023-05-22T08:47:47;101596.66;;;23.09;73.12
64886;BME280;51514;52.206;5.114;2023-05-22T08:50:16;101592.78;;;23.16;73.55
64886;BME280;51514;52.206;5.114;2023-05-22T08:52:48;101601.00;;;23.23;72.30
64886;BME280;51514;52.206;5.114;2023-05-22T08:55:14;101593.72;;;23.35;73.19
64886;BME280;51514;52.206;5.114;2023-05-22T08:57:41;101593.66;;;23.42;72.31
64886;BME280;51514;52.206;5.114;2023-05-22T09:00:07;101592.31;;;23.51;71.19
64886;BME280;51514;52.206;5.114;2023-05-22T09:02:33;101593.72;;;23.60;71.72
64886;BME280;51514;52.206;5.114;2023-05-22T09:04:58;101584.94;;;23.70;71.66
64886;BME280;51514;52.206;5.114;2023-05-22T09:07:29;101583.81;;;23.77;71.44
64886;BME280;51514;52.206;5.114;2023-05-22T09:09:55;101586.66;;;23.89;70.94
64886;BME280;51514;52.206;5.114;2023-05-22T09:12:20;101580.66;;;23.92;69.36
64886;BME280;51514;52.206;5.114;2023-05-22T09:14:46;101579.78;;;23.98;69.34
64886;BME280;51514;52.206;5.114;2023-05-22T09:17:14;101574.56;;;24.08;68.81
64886;BME280;51514;52.206;5.114;2023-05-22T09:19:43;101573.84;;;24.13;68.58
64886;BME280;51514;52.206;5.114;2023-05-22T09:22:10;101569.50;;;24.23;69.14
64886;BME280;51514;52.206;5.114;2023-05-22T09:24:43;101566.06;;;24.28;68.23
64886;BME280;51514;52.206;5.114;2023-05-22T09:27:10;101571.88;;;24.38;69.19
64886;BME280;51514;52.206;5.114;2023-05-22T09:29:51;101571.78;;;24.45;67.39
64886;BME280;51514;52.206;5.114;2023-05-22T09:32:17;101569.63;;;24.47;67.43
64886;BME280;51514;52.206;5.114;2023-05-22T09:34:43;101566.88;;;24.47;66.43
64886;BME280;51514;52.206;5.114;2023-05-22T09:37:11;101573.28;;;24.59;66.73
64886;BME280;51514;52.206;5.114;2023-05-22T09:39:42;101565.78;;;24.66;66.01
64886;BME280;51514;52.206;5.114;2023-05-22T09:42:09;101577.22;;;24.81;66.43
64886;BME280;51514;52.206;5.114;2023-05-22T09:44:35;101561.56;;;24.93;66.70
64886;BME280;51514;52.206;5.114;2023-05-22T09:47:02;101562.56;;;24.81;66.25
64886;BME280;51514;52.206;5.114;2023-05-22T09:49:27;101568.44;;;24.43;65.94
64886;BME280;51514;52.206;5.114;2023-05-22T09:51:53;101567.59;;;24.42;66.35
64886;BME280;51514;52.206;5.114;2023-05-22T09:54:24;101567.06;;;24.33;67.03
64886;BME280;51514;52.206;5.114;2023-05-22T09:56:53;101568.38;;;24.31;67.05
64886;BME280;51514;52.206;5.114;2023-05-22T09:59:28;101570.75;;;24.27;66.85
64886;BME280;51514;52.206;5.114;2023-05-22T10:01:57;101565.13;;;24.34;65.97
64886;BME280;51514;52.206;5.114;2023-05-22T10:04:26;101562.63;;;24.32;63.97
64886;BME280;51514;52.206;5.114;2023-05-22T10:07:04;101569.00;;;24.33;64.45
64886;BME280;51514;52.206;5.114;2023-05-22T10:09:37;101569.56;;;24.35;65.03
64886;BME280;51514;52.206;5.114;2023-05-22T10:12:05;101566.38;;;24.38;64.82
64886;BME280;51514;52.206;5.114;2023-05-22T10:14:33;101570.47;;;24.47;65.19
64886;BME280;51514;52.206;5.114;2023-05-22T10:17:00;101575.19;;;24.58;65.36
64886;BME280;51514;52.206;5.114;2023-05-22T10:19:29;101563.56;;;24.56;65.48
64886;BME280;51514;52.206;5.114;2023-05-22T10:21:59;101571.94;;;24.50;63.59
64886;BME280;51514;52.206;5.114;2023-05-22T10:24:24;101571.41;;;24.41;64.67
64886;BME280;51514;52.206;5.114;2023-05-22T10:26:52;101573.56;;;24.39;66.35
64886;BME280;51514;52.206;5.114;2023-05-22T10:29:23;101568.59;;;24.29;65.46
64886;BME280;51514;52.206;5.114;2023-05-22T10:31:59;101564.31;;;24.33;65.70
64886;BME280;51514;52.206;5.114;2023-05-22T10:34:56;101562.19;;;24.47;66.17
64886;BME280;51514;52.206;5.114;2023-05-22T10:40:18;101560.56;;;24.58;65.19
64886;BME280;51514;52.206;5.114;2023-05-22T10:42:45;101558.84;;;24.75;65.50
64886;BME280;51514;52.206;5.114;2023-05-22T10:45:10;101560.72;;;24.93;66.50
64886;BME280;51514;52.206;5.114;2023-05-22T10:47:36;101559.66;;;25.05;64.00
64886;BME280;51514;52.206;5.114;2023-05-22T10:50:03;101561.72;;;24.98;64.94
64886;BME280;51514;52.206;5.114;2023-05-22T10:52:30;101563.88;;;25.08;66.33
64886;BME280;51514;52.206;5.114;2023-05-22T10:54:58;101554.78;;;25.19;66.56
64886;BME280;51514;52.206;5.114;2023-05-22T10:57:24;101550.34;;;25.18;65.23
64886;BME280;51514;52.206;5.114;2023-05-22T10:59:49;101558.50;;;25.25;65.66
64886;BME280;51514;52.206;5.114;2023-05-22T11:02:20;101556.44;;;25.32;64.54
64886;BME280;51514;52.206;5.114;2023-05-22T11:04:45;101551.16;;;25.42;64.27
64886;BME280;51514;52.206;5.114;2023-05-22T11:07:11;101554.44;;;25.51;64.86
64886;BME280;51514;52.206;5.114;2023-05-22T11:09:42;101552.63;;;25.56;64.30
64886;BME280;51514;52.206;5.114;2023-05-22T11:12:27;101548.56;;;25.70;64.86
64886;BME280;51514;52.206;5.114;2023-05-22T11:15:02;101545.34;;;25.73;62.27
64886;BME280;51514;52.206;5.114;2023-05-22T11:17:31;101541.72;;;25.85;64.04
64886;BME280;51514;52.206;5.114;2023-05-22T11:20:05;101548.19;;;25.90;62.23
64886;BME280;51514;52.206;5.114;2023-05-22T11:22:42;101545.25;;;25.97;63.88
64886;BME280;51514;52.206;5.114;2023-05-22T11:25:16;101541.06;;;26.06;62.58
64886;BME280;51514;52.206;5.114;2023-05-22T11:27:46;101531.91;;;26.17;61.98
64886;BME280;51514;52.206;5.114;2023-05-22T11:30:12;101538.00;;;26.19;60.15
64886;BME280;51514;52.206;5.114;2023-05-22T11:32:39;101530.31;;;26.21;61.53
64886;BME280;51514;52.206;5.114;2023-05-22T11:35:05;101532.34;;;26.26;61.05
64886;BME280;51514;52.206;5.114;2023-05-22T11:37:37;101532.69;;;26.29;60.96
64886;BME280;51514;52.206;5.114;2023-05-22T11:40:04;101527.28;;;26.34;61.92
64886;BME280;51514;52.206;5.114;2023-05-22T11:42:31;101534.34;;;26.42;59.27
64886;BME280;51514;52.206;5.114;2023-05-22T11:44:56;101527.00;;;26.47;59.57
64886;BME280;51514;52.206;5.114;2023-05-22T11:47:22;101533.44;;;26.53;58.74
64886;BME280;51514;52.206;5.114;2023-05-22T11:49:48;101536.56;;;26.57;58.42
64886;BME280;51514;52.206;5.114;2023-05-22T11:52:17;101529.47;;;26.61;60.68
64886;BME280;51514;52.206;5.114;2023-05-22T11:54:44;101532.06;;;26.67;58.77
64886;BME280;51514;52.206;5.114;2023-05-22T11:57:10;101527.97;;;26.70;59.24
64886;BME280;51514;52.206;5.114;2023-05-22T11:59:35;101531.06;;;26.73;59.03
64886;BME280;51514;52.206;5.114;2023-05-22T12:02:00;101533.75;;;26.68;57.57
64886;BME280;51514;52.206;5.114;2023-05-22T12:04:26;101535.25;;;26.76;59.28
64886;BME280;51514;52.206;5.114;2023-05-22T12:06:52;101544.50;;;26.81;57.50
64886;BME280;51514;52.206;5.114;2023-05-22T12:09:18;101543.91;;;26.79;55.54
64886;BME280;51514;52.206;5.114;2023-05-22T12:11:45;101544.81;;;26.85;53.38
64886;BME280;51514;52.206;5.114;2023-05-22T12:14:11;101544.34;;;26.88;54.03
64886;BME280;51514;52.206;5.114;2023-05-22T12:16:37;101537.81;;;26.94;53.08
64886;BME280;51514;52.206;5.114;2023-05-22T12:19:09;101544.53;;;26.98;54.86
64886;BME280;51514;52.206;5.114;2023-05-22T12:21:37;101557.38;;;27.04;54.59
64886;BME280;51514;52.206;5.114;2023-05-22T12:24:03;101551.50;;;27.01;51.78
64886;BME280;51514;52.206;5.114;2023-05-22T12:26:30;101552.66;;;27.05;51.23
64886;BME280;51514;52.206;5.114;2023-05-22T12:28:58;101547.22;;;26.93;51.90
64886;BME280;51514;52.206;5.114;2023-05-22T12:31:24;101550.06;;;26.98;52.10
64886;BME280;51514;52.206;5.114;2023-05-22T12:33:56;101549.22;;;26.98;52.05
64886;BME280;51514;52.206;5.114;2023-05-22T12:36:38;101550.75;;;27.05;53.70
64886;BME280;51514;52.206;5.114;2023-05-22T12:39:08;101551.59;;;27.06;54.24
64886;BME280;51514;52.206;5.114;2023-05-22T12:41:35;101549.03;;;26.87;54.03
64886;BME280;51514;52.206;5.114;2023-05-22T12:44:01;101549.63;;;26.61;54.89
64886;BME280;51514;52.206;5.114;2023-05-22T12:46:30;101552.78;;;26.36;54.65
64886;BME280;51514;52.206;5.114;2023-05-22T12:48:57;101548.72;;;26.15;55.91
64886;BME280;51514;52.206;5.114;2023-05-22T12:51:24;101555.44;;;26.08;56.53
64886;BME280;51514;52.206;5.114;2023-05-22T12:53:51;101551.59;;;26.09;55.29
64886;BME280;51514;52.206;5.114;2023-05-22T12:56:16;101554.38;;;26.09;55.17
64886;BME280;51514;52.206;5.114;2023-05-22T12:58:41;101558.13;;;26.03;55.02
64886;BME280;51514;52.206;5.114;2023-05-22T13:01:07;101558.59;;;26.00;57.01
64886;BME280;51514;52.206;5.114;2023-05-22T13:03:33;101553.69;;;26.02;56.21
64886;BME280;51514;52.206;5.114;2023-05-22T13:05:58;101553.09;;;25.88;56.32
64886;BME280;51514;52.206;5.114;2023-05-22T13:08:24;101557.34;;;25.67;56.08
64886;BME280;51514;52.206;5.114;2023-05-22T13:10:49;101561.03;;;25.50;55.19